sensor_id;sensor_type;location;lat;lon;timestamp;temperature;humidity
60309;DHT22;50313;52.894;6.492;2022-08-18T00:00:05;18.30;99.90
60309;DHT22;50313;52.894;6.492;2022-08-18T00:02:32;18.30;99.90
60309;DHT22;50313;52.894;6.492;2022-08-18T00:04:58;18.30;99.90
60309;DHT22;50313;52.894;6.492;2022-08-18T00:07:29;18.30;99.90
60309;DHT22;50313;52.894;6.492;2022-08-18T00:09:56;18.30;99.90
60309;DHT22;50313;52.894;6.492;2022-08-18T00:12:40;18.30;99.90
60309;DHT22;50313;52.894;6.492;2022-08-18T00:15:10;18.20;99.90
60309;DHT22;50313;52.894;6.492;2022-08-18T00:17:36;18.20;99.90
60309;DHT22;50313;52.894;6.492;2022-08-18T00:20:08;18.20;99.90
60309;DHT22;50313;52.894;6.492;2022-08-18T00:22:35;18.20;99.90
60309;DHT22;50313;52.894;6.492;2022-08-18T00:25:02;18.20;99.90
60309;DHT22;50313;52.894;6.492;2022-08-18T00:27:29;18.20;99.90
60309;DHT22;50313;52.894;6.492;2022-08-18T00:30:01;18.20;99.90
60309;DHT22;50313;52.894;6.492;2022-08-18T00:32:31;18.20;99.90
60309;DHT22;50313;52.894;6.492;2022-08-18T00:35:05;18.30;99.90
60309;DHT22;50313;52.894;6.492;2022-08-18T00:37:31;18.20;99.90
60309;DHT22;50313;52.894;6.492;2022-08-18T00:39:57;18.20;99.90
60309;DHT22;50313;52.894;6.492;2022-08-18T00:42:26;18.20;99.90
60309;DHT22;50313;52.894;6.492;2022-08-18T00:44:54;18.10;99.90
60309;DHT22;50313;52.894;6.492;2022-08-18T00:47:20;18.10;99.90
60309;DHT22;50313;52.894;6.492;2022-08-18T00:49:47;18.10;99.90
60309;DHT22;50313;52.894;6.492;2022-08-18T00:52:16;18.10;99.90
60309;DHT22;50313;52.894;6.492;2022-08-18T00:54:45;18.10;99.90
60309;DHT22;50313;52.894;6.492;2022-08-18T00:57:12;18.10;99.90
60309;DHT22;50313;52.894;6.492;2022-08-18T01:00:01;18.10;99.90
60309;DHT22;50313;52.894;6.492;2022-08-18T01:02:39;18.10;99.90
60309;DHT22;50313;52.894;6.492;2022-08-18T01:05:25;18.10;99.90
60309;DHT22;50313;52.894;6.492;2022-08-18T01:07:52;18.10;99.90
60309;DHT22;50313;52.894;6.492;2022-08-18T01:10:20;18.20;99.90
60309;DHT22;50313;52.894;6.492;2022-08-18T01:12:51;18.20;99.90
60309;DHT22;50313;52.894;6.492;2022-08-18T01:15:19;18.20;99.90
60309;DHT22;50313;52.894;6.492;2022-08-18T01:17:46;18.20;99.90
60309;DHT22;50313;52.894;6.492;2022-08-18T01:20:35;18.20;99.90
60309;DHT22;50313;52.894;6.492;2022-08-18T01:23:22;18.30;99.90
60309;DHT22;50313;52.894;6.492;2022-08-18T01:25:49;18.30;99.90
60309;DHT22;50313;52.894;6.492;2022-08-18T01:28:26;18.30;99.90
60309;DHT22;50313;52.894;6.492;2022-08-18T01:30:53;18.30;99.90
60309;DHT22;50313;52.894;6.492;2022-08-18T01:33:26;18.30;99.90
60309;DHT22;50313;52.894;6.492;2022-08-18T01:36:00;18.30;99.90
60309;DHT22;50313;52.894;6.492;2022-08-18T01:38:27;18.30;99.90
60309;DHT22;50313;52.894;6.492;2022-08-18T01:40:53;18.30;99.90
60309;DHT22;50313;52.894;6.492;2022-08-18T01:43:19;18.30;99.90
60309;DHT22;50313;52.894;6.492;2022-08-18T01:45:45;18.40;99.90
60309;DHT22;50313;52.894;6.492;2022-08-18T01:48:12;18.30;99.90
60309;DHT22;50313;52.894;6.492;2022-08-18T01:50:38;18.30;99.90
60309;DHT22;50313;52.894;6.492;2022-08-18T01:53:06;18.40;99.90
60309;DHT22;50313;52.894;6.492;2022-08-18T01:55:37;18.40;99.90
60309;DHT22;50313;52.894;6.492;2022-08-18T01:58:05;18.30;99.90
60309;DHT22;50313;52.894;6.492;2022-08-18T02:00:32;18.30;99.90
60309;DHT22;50313;52.894;6.492;2022-08-18T02:03:00;18.30;99.90
60309;DHT22;50313;52.894;6.492;2022-08-18T02:05:48;18.30;99.90
60309;DHT22;50313;52.894;6.492;2022-08-18T02:08:14;18.30;99.90
60309;DHT22;50313;52.894;6.492;2022-08-18T02:10:41;18.20;99.90
60309;DHT22;50313;52.894;6.492;2022-08-18T02:13:07;18.20;99.90
60309;DHT22;50313;52.894;6.492;2022-08-18T02:15:33;18.30;99.90
60309;DHT22;50313;52.894;6.492;2022-08-18T02:18:00;18.20;99.90
60309;DHT22;50313;52.894;6.492;2022-08-18T02:20:25;18.20;99.90
60309;DHT22;50313;52.894;6.492;2022-08-18T02:22:51;18.10;99.90
60309;DHT22;50313;52.894;6.492;2022-08-18T02:25:18;18.10;99.90
60309;DHT22;50313;52.894;6.492;2022-08-18T02:27:44;18.20;99.90
60309;DHT22;50313;52.894;6.492;2022-08-18T02:30:13;18.10;99.90
60309;DHT22;50313;52.894;6.492;2022-08-18T02:32:39;18.10;99.90
60309;DHT22;50313;52.894;6.492;2022-08-18T02:35:06;18.10;99.90
60309;DHT22;50313;52.894;6.492;2022-08-18T02:37:32;18.10;99.90
60309;DHT22;50313;52.894;6.492;2022-08-18T02:39:58;18.10;99.90
60309;DHT22;50313;52.894;6.492;2022-08-18T02:42:23;18.10;99.90
60309;DHT22;50313;52.894;6.492;2022-08-18T02:44:50;18.10;99.90
60309;DHT22;50313;52.894;6.492;2022-08-18T02:47:19;18.10;99.90
60309;DHT22;50313;52.894;6.492;2022-08-18T02:49:45;18.10;99.90
60309;DHT22;50313;52.894;6.492;2022-08-18T02:52:11;18.10;99.90
60309;DHT22;50313;52.894;6.492;2022-08-18T02:54:37;18.10;99.90
60309;DHT22;50313;52.894;6.492;2022-08-18T02:57:10;18.10;99.90
60309;DHT22;50313;52.894;6.492;2022-08-18T02:59:37;18.00;99.90
60309;DHT22;50313;52.894;6.492;2022-08-18T03:02:05;18.10;99.90
60309;DHT22;50313;52.894;6.492;2022-08-18T03:04:32;18.10;99.90
60309;DHT22;50313;52.894;6.492;2022-08-18T03:07:01;18.10;99.90
60309;DHT22;50313;52.894;6.492;2022-08-18T03:09:28;18.00;99.90
60309;DHT22;50313;52.894;6.492;2022-08-18T03:11:54;18.10;99.90
60309;DHT22;50313;52.894;6.492;2022-08-18T03:14:20;18.00;99.90
60309;DHT22;50313;52.894;6.492;2022-08-18T03:16:47;18.10;99.90
60309;DHT22;50313;52.894;6.492;2022-08-18T03:19:14;18.00;99.90
60309;DHT22;50313;52.894;6.492;2022-08-18T03:21:42;18.00;99.90
60309;DHT22;50313;52.894;6.492;2022-08-18T03:24:09;18.00;99.90
60309;DHT22;50313;52.894;6.492;2022-08-18T03:26:39;18.00;99.90
60309;DHT22;50313;52.894;6.492;2022-08-18T03:29:06;18.00;99.90
60309;DHT22;50313;52.894;6.492;2022-08-18T03:31:32;18.00;99.90
60309;DHT22;50313;52.894;6.492;2022-08-18T03:33:58;18.00;99.90
60309;DHT22;50313;52.894;6.492;2022-08-18T03:36:28;18.00;99.90
60309;DHT22;50313;52.894;6.492;2022-08-18T03:38:56;18.00;99.90
60309;DHT22;50313;52.894;6.492;2022-08-18T03:41:25;18.00;99.90
60309;DHT22;50313;52.894;6.492;2022-08-18T03:43:51;18.00;99.90
60309;DHT22;50313;52.894;6.492;2022-08-18T03:46:18;17.90;99.90
60309;DHT22;50313;52.894;6.492;2022-08-18T03:48:45;17.90;99.90
60309;DHT22;50313;52.894;6.492;2022-08-18T03:51:17;18.00;99.90
60309;DHT22;50313;52.894;6.492;2022-08-18T03:53:44;18.00;99.90
60309;DHT22;50313;52.894;6.492;2022-08-18T03:56:12;17.90;99.90
60309;DHT22;50313;52.894;6.492;2022-08-18T03:58:43;17.90;99.90
60309;DHT22;50313;52.894;6.492;2022-08-18T04:01:13;18.00;99.90
60309;DHT22;50313;52.894;6.492;2022-08-18T04:03:42;18.00;99.90
60309;DHT22;50313;52.894;6.492;2022-08-18T04:06:17;18.00;99.90
60309;DHT22;50313;52.894;6.492;2022-08-18T04:08:44;17.90;99.90
60309;DHT22;50313;52.894;6.492;2022-08-18T04:11:11;17.90;99.90
60309;DHT22;50313;52.894;6.492;2022-08-18T04:13:39;18.00;99.90
60309;DHT22;50313;52.894;6.492;2022-08-18T04:16:05;17.90;99.90
60309;DHT22;50313;52.894;6.492;2022-08-18T04:18:31;18.00;99.90
60309;DHT22;50313;52.894;6.492;2022-08-18T04:21:02;18.00;99.90
60309;DHT22;50313;52.894;6.492;2022-08-18T04:23:28;17.90;99.90
60309;DHT22;50313;52.894;6.492;2022-08-18T04:25:56;17.90;99.90
60309;DHT22;50313;52.894;6.492;2022-08-18T04:28:22;18.00;99.90
60309;DHT22;50313;52.894;6.492;2022-08-18T04:30:48;17.90;99.90
60309;DHT22;50313;52.894;6.492;2022-08-18T04:33:13;17.90;99.90
60309;DHT22;50313;52.894;6.492;2022-08-18T04:35:39;17.90;99.90
60309;DHT22;50313;52.894;6.492;2022-08-18T04:38:05;17.90;99.90
60309;DHT22;50313;52.894;6.492;2022-08-18T04:40:32;18.00;99.90
60309;DHT22;50313;52.894;6.492;2022-08-18T04:42:58;17.90;99.90
60309;DHT22;50313;52.894;6.492;2022-08-18T04:45:26;17.90;99.90
60309;DHT22;50313;52.894;6.492;2022-08-18T04:47:51;18.00;99.90
60309;DHT22;50313;52.894;6.492;2022-08-18T04:50:18;17.90;99.90
60309;DHT22;50313;52.894;6.492;2022-08-18T04:52:43;17.90;99.90
60309;DHT22;50313;52.894;6.492;2022-08-18T04:55:35;17.90;99.90
60309;DHT22;50313;52.894;6.492;2022-08-18T04:58:01;17.90;99.90
60309;DHT22;50313;52.894;6.492;2022-08-18T05:00:27;18.00;99.90
60309;DHT22;50313;52.894;6.492;2022-08-18T05:02:52;18.00;99.90
60309;DHT22;50313;52.894;6.492;2022-08-18T05:05:19;18.00;99.90
60309;DHT22;50313;52.894;6.492;2022-08-18T05:07:45;18.00;99.90
60309;DHT22;50313;52.894;6.492;2022-08-18T05:10:12;17.90;99.90
60309;DHT22;50313;52.894;6.492;2022-08-18T05:12:38;18.00;99.90
60309;DHT22;50313;52.894;6.492;2022-08-18T05:15:08;18.00;99.90
60309;DHT22;50313;52.894;6.492;2022-08-18T05:17:36;18.00;99.90
60309;DHT22;50313;52.894;6.492;2022-08-18T05:20:06;18.10;99.90
60309;DHT22;50313;52.894;6.492;2022-08-18T05:22:39;18.00;99.90
60309;DHT22;50313;52.894;6.492;2022-08-18T05:25:07;18.00;99.90
60309;DHT22;50313;52.894;6.492;2022-08-18T05:27:39;18.00;99.90
60309;DHT22;50313;52.894;6.492;2022-08-18T05:30:07;18.10;99.90
60309;DHT22;50313;52.894;6.492;2022-08-18T05:32:38;18.10;99.90
60309;DHT22;50313;52.894;6.492;2022-08-18T05:35:08;18.10;99.90
60309;DHT22;50313;52.894;6.492;2022-08-18T05:38:04;18.20;99.90
60309;DHT22;50313;52.894;6.492;2022-08-18T05:40:33;18.20;99.90
60309;DHT22;50313;52.894;6.492;2022-08-18T05:43:00;18.30;99.90
60309;DHT22;50313;52.894;6.492;2022-08-18T05:45:27;18.30;99.90
60309;DHT22;50313;52.894;6.492;2022-08-18T05:47:58;18.30;99.90
60309;DHT22;50313;52.894;6.492;2022-08-18T05:50:28;18.30;99.90
60309;DHT22;50313;52.894;6.492;2022-08-18T05:53:15;18.40;99.90
60309;DHT22;50313;52.894;6.492;2022-08-18T05:55:59;18.50;99.90
60309;DHT22;50313;52.894;6.492;2022-08-18T05:58:49;18.50;99.90
60309;DHT22;50313;52.894;6.492;2022-08-18T06:01:23;18.50;99.90
60309;DHT22;50313;52.894;6.492;2022-08-18T06:05:03;18.60;99.90
60309;DHT22;50313;52.894;6.492;2022-08-18T06:06:51;18.70;99.90
60309;DHT22;50313;52.894;6.492;2022-08-18T06:11:42;18.90;99.90
60309;DHT22;50313;52.894;6.492;2022-08-18T06:14:09;18.90;99.90
60309;DHT22;50313;52.894;6.492;2022-08-18T06:17:26;18.90;99.90
60309;DHT22;50313;52.894;6.492;2022-08-18T06:19:42;19.00;99.90
60309;DHT22;50313;52.894;6.492;2022-08-18T06:22:26;19.00;99.90
60309;DHT22;50313;52.894;6.492;2022-08-18T06:25:21;19.10;99.90
60309;DHT22;50313;52.894;6.492;2022-08-18T06:28:03;19.10;99.90
60309;DHT22;50313;52.894;6.492;2022-08-18T06:35:48;19.10;99.90
60309;DHT22;50313;52.894;6.492;2022-08-18T06:41:19;19.10;99.90
60309;DHT22;50313;52.894;6.492;2022-08-18T06:46:31;19.20;99.90
60309;DHT22;50313;52.894;6.492;2022-08-18T06:49:04;19.30;99.90
60309;DHT22;50313;52.894;6.492;2022-08-18T06:51:31;19.40;99.90
60309;DHT22;50313;52.894;6.492;2022-08-18T06:54:07;19.50;99.90
60309;DHT22;50313;52.894;6.492;2022-08-18T06:56:51;19.50;99.90
60309;DHT22;50313;52.894;6.492;2022-08-18T07:05:05;19.40;99.90
60309;DHT22;50313;52.894;6.492;2022-08-18T07:07:39;19.50;99.90
60309;DHT22;50313;52.894;6.492;2022-08-18T07:10:39;19.40;99.90
60309;DHT22;50313;52.894;6.492;2022-08-18T07:13:18;19.50;99.90
60309;DHT22;50313;52.894;6.492;2022-08-18T07:15:44;19.50;99.90
60309;DHT22;50313;52.894;6.492;2022-08-18T07:18:14;19.50;99.90
60309;DHT22;50313;52.894;6.492;2022-08-18T07:20:48;19.50;99.90
60309;DHT22;50313;52.894;6.492;2022-08-18T07:23:38;19.40;99.90
60309;DHT22;50313;52.894;6.492;2022-08-18T07:26:14;19.40;99.90
60309;DHT22;50313;52.894;6.492;2022-08-18T07:28:46;19.30;99.90
60309;DHT22;50313;52.894;6.492;2022-08-18T07:31:47;19.30;99.90
60309;DHT22;50313;52.894;6.492;2022-08-18T07:34:22;19.20;99.90
60309;DHT22;50313;52.894;6.492;2022-08-18T07:36:57;19.30;99.90
60309;DHT22;50313;52.894;6.492;2022-08-18T07:42:15;19.30;99.90
60309;DHT22;50313;52.894;6.492;2022-08-18T07:47:26;19.60;99.90
60309;DHT22;50313;52.894;6.492;2022-08-18T07:49:55;19.80;99.90
60309;DHT22;50313;52.894;6.492;2022-08-18T07:52:35;19.90;99.90
60309;DHT22;50313;52.894;6.492;2022-08-18T07:55:30;20.00;99.90
60309;DHT22;50313;52.894;6.492;2022-08-18T07:58:14;20.00;99.90
60309;DHT22;50313;52.894;6.492;2022-08-18T08:01:10;20.00;99.90
60309;DHT22;50313;52.894;6.492;2022-08-18T08:06:52;20.00;99.90
60309;DHT22;50313;52.894;6.492;2022-08-18T08:09:51;20.00;99.90
60309;DHT22;50313;52.894;6.492;2022-08-18T08:12:49;20.10;99.90
60309;DHT22;50313;52.894;6.492;2022-08-18T08:21:15;20.10;99.90
60309;DHT22;50313;52.894;6.492;2022-08-18T08:29:24;19.90;99.90
60309;DHT22;50313;52.894;6.492;2022-08-18T08:32:05;19.90;99.90
60309;DHT22;50313;52.894;6.492;2022-08-18T08:34:45;19.90;99.90
60309;DHT22;50313;52.894;6.492;2022-08-18T08:37:43;19.70;99.90
60309;DHT22;50313;52.894;6.492;2022-08-18T08:40:23;19.70;99.90
60309;DHT22;50313;52.894;6.492;2022-08-18T08:43:03;19.50;99.90
60309;DHT22;50313;52.894;6.492;2022-08-18T08:45:50;19.50;99.90
60309;DHT22;50313;52.894;6.492;2022-08-18T08:48:28;19.50;99.90
60309;DHT22;50313;52.894;6.492;2022-08-18T08:50:59;19.40;99.90
60309;DHT22;50313;52.894;6.492;2022-08-18T08:53:53;19.50;99.90
60309;DHT22;50313;52.894;6.492;2022-08-18T08:56:22;19.70;99.90
60309;DHT22;50313;52.894;6.492;2022-08-18T08:58:57;19.80;99.90
60309;DHT22;50313;52.894;6.492;2022-08-18T09:04:58;20.20;99.90
60309;DHT22;50313;52.894;6.492;2022-08-18T09:10:29;20.60;99.90
60309;DHT22;50313;52.894;6.492;2022-08-18T09:16:03;20.90;99.90
60309;DHT22;50313;52.894;6.492;2022-08-18T09:18:54;21.00;99.90
60309;DHT22;50313;52.894;6.492;2022-08-18T09:21:39;21.20;99.90
60309;DHT22;50313;52.894;6.492;2022-08-18T09:24:31;21.50;99.90
60309;DHT22;50313;52.894;6.492;2022-08-18T09:29:53;21.40;99.90
60309;DHT22;50313;52.894;6.492;2022-08-18T09:40:13;20.50;99.90
60309;DHT22;50313;52.894;6.492;2022-08-18T09:43:53;20.60;99.90
60309;DHT22;50313;52.894;6.492;2022-08-18T09:52:00;21.20;99.90
60309;DHT22;50313;52.894;6.492;2022-08-18T09:57:36;21.50;99.90
60309;DHT22;50313;52.894;6.492;2022-08-18T10:16:22;21.40;99.90
60309;DHT22;50313;52.894;6.492;2022-08-18T10:24:17;21.50;99.90
60309;DHT22;50313;52.894;6.492;2022-08-18T10:32:40;21.50;99.90
60309;DHT22;50313;52.894;6.492;2022-08-18T10:38:22;21.60;99.90
60309;DHT22;50313;52.894;6.492;2022-08-18T10:41:18;21.60;99.90
60309;DHT22;50313;52.894;6.492;2022-08-18T10:43:47;21.70;99.90
60309;DHT22;50313;52.894;6.492;2022-08-18T10:46:20;21.90;99.90
60309;DHT22;50313;52.894;6.492;2022-08-18T10:49:22;22.10;99.90
60309;DHT22;50313;52.894;6.492;2022-08-18T10:54:49;22.30;99.90
60309;DHT22;50313;52.894;6.492;2022-08-18T10:57:26;22.30;99.90
60309;DHT22;50313;52.894;6.492;2022-08-18T11:00:10;22.20;99.90
60309;DHT22;50313;52.894;6.492;2022-08-18T11:05:17;22.40;99.90
60309;DHT22;50313;52.894;6.492;2022-08-18T11:07:46;22.30;99.90
60309;DHT22;50313;52.894;6.492;2022-08-18T11:10:19;22.50;99.90
60309;DHT22;50313;52.894;6.492;2022-08-18T11:13:13;22.70;99.90
60309;DHT22;50313;52.894;6.492;2022-08-18T11:18:36;23.10;99.90
60309;DHT22;50313;52.894;6.492;2022-08-18T11:21:33;23.10;99.90
60309;DHT22;50313;52.894;6.492;2022-08-18T11:27:01;22.60;99.90
60309;DHT22;50313;52.894;6.492;2022-08-18T11:29:41;22.60;99.90
60309;DHT22;50313;52.894;6.492;2022-08-18T11:34:51;23.00;99.90
60309;DHT22;50313;52.894;6.492;2022-08-18T11:39:54;23.00;99.90
60309;DHT22;50313;52.894;6.492;2022-08-18T11:42:32;22.80;99.90
60309;DHT22;50313;52.894;6.492;2022-08-18T11:45:18;22.80;99.90
60309;DHT22;50313;52.894;6.492;2022-08-18T11:59:08;23.20;99.90
60309;DHT22;50313;52.894;6.492;2022-08-18T12:01:51;23.50;99.90
60309;DHT22;50313;52.894;6.492;2022-08-18T12:12:05;22.80;99.90
60309;DHT22;50313;52.894;6.492;2022-08-18T12:14:48;22.90;99.90
60309;DHT22;50313;52.894;6.492;2022-08-18T12:17:16;22.80;99.90
60309;DHT22;50313;52.894;6.492;2022-08-18T12:19:42;23.10;99.90
60309;DHT22;50313;52.894;6.492;2022-08-18T12:22:21;23.40;99.90
60309;DHT22;50313;52.894;6.492;2022-08-18T12:24:48;23.50;99.90
60309;DHT22;50313;52.894;6.492;2022-08-18T12:27:20;23.50;99.90
60309;DHT22;50313;52.894;6.492;2022-08-18T12:29:46;23.70;99.90
60309;DHT22;50313;52.894;6.492;2022-08-18T12:32:12;23.70;99.90
60309;DHT22;50313;52.894;6.492;2022-08-18T12:34:38;23.70;99.90
60309;DHT22;50313;52.894;6.492;2022-08-18T12:37:08;23.80;99.90
60309;DHT22;50313;52.894;6.492;2022-08-18T12:39:35;24.20;99.90
60309;DHT22;50313;52.894;6.492;2022-08-18T12:42:01;24.30;99.90
60309;DHT22;50313;52.894;6.492;2022-08-18T12:44:27;24.10;99.90
60309;DHT22;50313;52.894;6.492;2022-08-18T12:46:53;24.20;99.90
60309;DHT22;50313;52.894;6.492;2022-08-18T12:49:23;24.40;99.90
60309;DHT22;50313;52.894;6.492;2022-08-18T12:51:49;24.00;99.90
60309;DHT22;50313;52.894;6.492;2022-08-18T12:54:16;24.00;99.90
60309;DHT22;50313;52.894;6.492;2022-08-18T12:56:49;23.90;99.90
60309;DHT22;50313;52.894;6.492;2022-08-18T12:59:15;23.90;99.90
60309;DHT22;50313;52.894;6.492;2022-08-18T13:01:41;23.60;99.90
60309;DHT22;50313;52.894;6.492;2022-08-18T13:04:06;23.70;99.90
60309;DHT22;50313;52.894;6.492;2022-08-18T13:06:35;24.00;99.90
60309;DHT22;50313;52.894;6.492;2022-08-18T13:09:01;24.60;99.90
60309;DHT22;50313;52.894;6.492;2022-08-18T13:11:27;24.80;99.90
60309;DHT22;50313;52.894;6.492;2022-08-18T13:13:53;24.90;99.90
60309;DHT22;50313;52.894;6.492;2022-08-18T13:16:19;24.60;99.90
60309;DHT22;50313;52.894;6.492;2022-08-18T13:18:45;24.40;99.90
60309;DHT22;50313;52.894;6.492;2022-08-18T13:21:14;24.40;99.90
60309;DHT22;50313;52.894;6.492;2022-08-18T13:23:40;24.30;99.90
60309;DHT22;50313;52.894;6.492;2022-08-18T13:26:08;24.50;99.90
60309;DHT22;50313;52.894;6.492;2022-08-18T13:28:37;24.70;99.90
60309;DHT22;50313;52.894;6.492;2022-08-18T13:31:05;24.80;99.90
60309;DHT22;50313;52.894;6.492;2022-08-18T13:33:30;24.90;99.90
60309;DHT22;50313;52.894;6.492;2022-08-18T13:35:57;24.60;99.90
60309;DHT22;50313;52.894;6.492;2022-08-18T13:38:23;24.30;99.90
60309;DHT22;50313;52.894;6.492;2022-08-18T13:40:50;24.60;99.90
60309;DHT22;50313;52.894;6.492;2022-08-18T13:43:18;24.70;99.90
60309;DHT22;50313;52.894;6.492;2022-08-18T13:45:45;24.80;99.90
60309;DHT22;50313;52.894;6.492;2022-08-18T13:48:14;25.20;99.90
60309;DHT22;50313;52.894;6.492;2022-08-18T13:50:40;25.20;99.90
60309;DHT22;50313;52.894;6.492;2022-08-18T13:53:15;25.60;99.90
60309;DHT22;50313;52.894;6.492;2022-08-18T13:55:44;25.70;99.90
60309;DHT22;50313;52.894;6.492;2022-08-18T13:58:10;26.00;99.90
60309;DHT22;50313;52.894;6.492;2022-08-18T14:00:37;26.20;99.90
60309;DHT22;50313;52.894;6.492;2022-08-18T14:03:03;25.80;99.90
60309;DHT22;50313;52.894;6.492;2022-08-18T14:05:31;25.60;99.90
60309;DHT22;50313;52.894;6.492;2022-08-18T14:07:58;25.30;99.90
60309;DHT22;50313;52.894;6.492;2022-08-18T14:10:25;25.00;99.90
60309;DHT22;50313;52.894;6.492;2022-08-18T14:12:55;24.80;99.90
60309;DHT22;50313;52.894;6.492;2022-08-18T14:15:22;24.60;99.90
60309;DHT22;50313;52.894;6.492;2022-08-18T14:17:48;24.90;99.90
60309;DHT22;50313;52.894;6.492;2022-08-18T14:20:14;25.10;99.90
60309;DHT22;50313;52.894;6.492;2022-08-18T14:22:59;25.40;99.90
60309;DHT22;50313;52.894;6.492;2022-08-18T14:25:44;25.60;99.90
60309;DHT22;50313;52.894;6.492;2022-08-18T14:28:30;26.10;99.90
60309;DHT22;50313;52.894;6.492;2022-08-18T14:30:57;26.40;99.90
60309;DHT22;50313;52.894;6.492;2022-08-18T14:33:25;26.40;99.40
60309;DHT22;50313;52.894;6.492;2022-08-18T14:35:51;26.60;99.90
60309;DHT22;50313;52.894;6.492;2022-08-18T14:38:17;26.80;98.00
60309;DHT22;50313;52.894;6.492;2022-08-18T14:40:45;26.70;98.80
60309;DHT22;50313;52.894;6.492;2022-08-18T14:43:12;27.00;97.00
60309;DHT22;50313;52.894;6.492;2022-08-18T14:45:39;27.00;97.10
60309;DHT22;50313;52.894;6.492;2022-08-18T14:48:14;26.60;96.70
60309;DHT22;50313;52.894;6.492;2022-08-18T14:50:42;26.10;97.90
60309;DHT22;50313;52.894;6.492;2022-08-18T14:53:10;26.50;97.20
60309;DHT22;50313;52.894;6.492;2022-08-18T14:55:38;26.60;96.70
60309;DHT22;50313;52.894;6.492;2022-08-18T14:58:04;26.60;97.10
60309;DHT22;50313;52.894;6.492;2022-08-18T15:00:29;26.90;96.60
60309;DHT22;50313;52.894;6.492;2022-08-18T15:02:56;27.20;95.80
60309;DHT22;50313;52.894;6.492;2022-08-18T15:05:23;27.60;95.50
60309;DHT22;50313;52.894;6.492;2022-08-18T15:07:48;27.90;94.40
60309;DHT22;50313;52.894;6.492;2022-08-18T15:10:15;27.90;94.40
60309;DHT22;50313;52.894;6.492;2022-08-18T15:12:41;28.00;95.00
60309;DHT22;50313;52.894;6.492;2022-08-18T15:15:10;28.30;94.00
60309;DHT22;50313;52.894;6.492;2022-08-18T15:17:38;28.50;94.20
60309;DHT22;50313;52.894;6.492;2022-08-18T15:20:05;28.10;92.50
60309;DHT22;50313;52.894;6.492;2022-08-18T15:22:40;27.70;93.50
60309;DHT22;50313;52.894;6.492;2022-08-18T15:25:24;27.70;94.50
60309;DHT22;50313;52.894;6.492;2022-08-18T15:28:22;26.80;95.10
60309;DHT22;50313;52.894;6.492;2022-08-18T15:30:50;26.90;94.90
60309;DHT22;50313;52.894;6.492;2022-08-18T15:33:17;26.60;95.60
60309;DHT22;50313;52.894;6.492;2022-08-18T15:35:44;26.80;94.90
60309;DHT22;50313;52.894;6.492;2022-08-18T15:38:15;27.10;94.10
60309;DHT22;50313;52.894;6.492;2022-08-18T15:40:55;27.60;94.70
60309;DHT22;50313;52.894;6.492;2022-08-18T15:43:25;28.10;93.50
60309;DHT22;50313;52.894;6.492;2022-08-18T15:45:52;28.30;93.00
60309;DHT22;50313;52.894;6.492;2022-08-18T15:48:19;28.60;93.30
60309;DHT22;50313;52.894;6.492;2022-08-18T15:50:47;28.60;93.10
60309;DHT22;50313;52.894;6.492;2022-08-18T15:53:18;28.40;93.70
60309;DHT22;50313;52.894;6.492;2022-08-18T15:55:44;28.50;92.80
60309;DHT22;50313;52.894;6.492;2022-08-18T15:58:11;28.80;93.20
60309;DHT22;50313;52.894;6.492;2022-08-18T16:00:39;28.20;92.90
60309;DHT22;50313;52.894;6.492;2022-08-18T16:03:08;28.50;92.40
60309;DHT22;50313;52.894;6.492;2022-08-18T16:05:39;28.60;92.10
60309;DHT22;50313;52.894;6.492;2022-08-18T16:08:08;28.70;91.60
60309;DHT22;50313;52.894;6.492;2022-08-18T16:10:37;28.70;92.20
60309;DHT22;50313;52.894;6.492;2022-08-18T16:13:04;29.00;91.70
60309;DHT22;50313;52.894;6.492;2022-08-18T16:15:34;29.00;92.60
60309;DHT22;50313;52.894;6.492;2022-08-18T16:18:00;29.00;91.60
60309;DHT22;50313;52.894;6.492;2022-08-18T16:20:26;28.90;91.80
60309;DHT22;50313;52.894;6.492;2022-08-18T16:22:54;28.60;92.40
60309;DHT22;50313;52.894;6.492;2022-08-18T16:25:22;28.70;91.80
60309;DHT22;50313;52.894;6.492;2022-08-18T16:27:48;28.40;92.00
60309;DHT22;50313;52.894;6.492;2022-08-18T16:30:18;28.20;91.80
60309;DHT22;50313;52.894;6.492;2022-08-18T16:32:44;28.50;92.40
60309;DHT22;50313;52.894;6.492;2022-08-18T16:35:11;28.30;91.90
60309;DHT22;50313;52.894;6.492;2022-08-18T16:37:37;28.70;92.00
60309;DHT22;50313;52.894;6.492;2022-08-18T16:40:04;28.30;91.90
60309;DHT22;50313;52.894;6.492;2022-08-18T16:42:30;28.30;91.80
60309;DHT22;50313;52.894;6.492;2022-08-18T16:45:00;28.30;91.80
60309;DHT22;50313;52.894;6.492;2022-08-18T16:47:27;28.40;92.30
60309;DHT22;50313;52.894;6.492;2022-08-18T16:49:52;28.60;92.60
60309;DHT22;50313;52.894;6.492;2022-08-18T16:52:19;28.40;91.50
60309;DHT22;50313;52.894;6.492;2022-08-18T16:54:46;28.30;92.10
60309;DHT22;50313;52.894;6.492;2022-08-18T16:57:12;28.00;92.30
60309;DHT22;50313;52.894;6.492;2022-08-18T16:59:38;27.30;92.10
60309;DHT22;50313;52.894;6.492;2022-08-18T17:02:23;26.80;93.60
60309;DHT22;50313;52.894;6.492;2022-08-18T17:05:08;26.10;94.10
60309;DHT22;50313;52.894;6.492;2022-08-18T17:07:35;25.70;94.90
60309;DHT22;50313;52.894;6.492;2022-08-18T17:10:03;25.30;95.90
60309;DHT22;50313;52.894;6.492;2022-08-18T17:12:29;25.00;96.50
60309;DHT22;50313;52.894;6.492;2022-08-18T17:14:55;24.90;96.60
60309;DHT22;50313;52.894;6.492;2022-08-18T17:17:21;24.60;96.80
60309;DHT22;50313;52.894;6.492;2022-08-18T17:19:48;24.60;97.50
60309;DHT22;50313;52.894;6.492;2022-08-18T17:22:15;24.40;97.60
60309;DHT22;50313;52.894;6.492;2022-08-18T17:24:41;24.70;97.60
60309;DHT22;50313;52.894;6.492;2022-08-18T17:27:23;24.50;97.40
60309;DHT22;50313;52.894;6.492;2022-08-18T17:32:32;23.90;98.70
60309;DHT22;50313;52.894;6.492;2022-08-18T17:35:06;23.80;99.20
60309;DHT22;50313;52.894;6.492;2022-08-18T17:37:34;23.60;99.80
60309;DHT22;50313;52.894;6.492;2022-08-18T17:40:12;23.30;99.90
60309;DHT22;50313;52.894;6.492;2022-08-18T17:42:40;23.20;99.90
60309;DHT22;50313;52.894;6.492;2022-08-18T17:45:10;23.00;99.90
60309;DHT22;50313;52.894;6.492;2022-08-18T17:48:17;22.90;99.90
60309;DHT22;50313;52.894;6.492;2022-08-18T17:50:58;22.80;99.90
60309;DHT22;50313;52.894;6.492;2022-08-18T17:53:43;22.70;99.90
60309;DHT22;50313;52.894;6.492;2022-08-18T17:56:14;22.60;99.90
60309;DHT22;50313;52.894;6.492;2022-08-18T17:58:53;22.60;99.90
60309;DHT22;50313;52.894;6.492;2022-08-18T18:01:21;22.50;99.90
60309;DHT22;50313;52.894;6.492;2022-08-18T18:03:48;22.40;99.90
60309;DHT22;50313;52.894;6.492;2022-08-18T18:06:39;22.40;99.90
60309;DHT22;50313;52.894;6.492;2022-08-18T18:09:29;22.30;99.90
60309;DHT22;50313;52.894;6.492;2022-08-18T18:11:55;22.20;99.90
60309;DHT22;50313;52.894;6.492;2022-08-18T18:14:35;22.10;99.90